createdAt,value
2018-10-19T00:02:16.136Z,42.98
2018-10-19T00:05:28.299Z,32.65
2018-10-19T00:08:40.306Z,44.93
2018-10-19T00:11:51.936Z,38.95
2018-10-19T00:15:03.955Z,35.78
2018-10-19T00:18:15.941Z,35.78
2018-10-19T00:21:28.156Z,31.40
2018-10-19T00:24:40.207Z,33.85
2018-10-19T00:27:51.540Z,32.17
2018-10-19T00:31:04.572Z,36.55
2018-10-19T00:34:16.736Z,33.42
2018-10-19T00:37:28.815Z,32.33
2018-10-19T00:40:40.923Z,40.00
2018-10-19T00:43:53.114Z,34.15
2018-10-19T00:47:04.776Z,29.82
2018-10-19T00:50:17.107Z,33.02
2018-10-19T00:53:29.340Z,37.13
2018-10-19T00:56:41.207Z,34.30
2018-10-19T00:59:53.129Z,34.83
2018-10-19T01:03:04.583Z,32.60
2018-10-19T01:06:15.842Z,32.63
2018-10-19T01:09:27.953Z,31.77
2018-10-19T01:12:39.748Z,29.23
2018-10-19T01:15:51.166Z,33.00
2018-10-19T01:19:02.696Z,35.43
2018-10-19T01:22:13.979Z,22.35
2018-10-19T01:25:25.231Z,27.67
2018-10-19T01:28:37.255Z,32.38
2018-10-19T01:31:49.295Z,24.90
2018-10-19T01:35:00.876Z,20.23
2018-10-19T01:38:12.765Z,19.20
2018-10-19T01:41:23.946Z,19.45
2018-10-19T01:44:36.015Z,21.33
2018-10-19T01:47:47.157Z,21.02
2018-10-19T01:50:59.447Z,20.97
2018-10-19T01:54:10.699Z,19.87
2018-10-19T01:57:23.512Z,20.88
2018-10-19T02:00:34.803Z,20.25
2018-10-19T02:03:46.856Z,22.55
2018-10-19T02:06:58.893Z,18.75
2018-10-19T02:13:25.355Z,18.82
2018-10-19T02:16:36.742Z,18.65
2018-10-19T02:19:48.391Z,17.48
2018-10-19T02:23:00.157Z,18.10
2018-10-19T02:26:12.095Z,18.20
2018-10-19T02:29:23.742Z,18.05
2018-10-19T02:32:36.169Z,17.90
2018-10-19T02:35:47.528Z,18.45
2018-10-19T02:38:59.134Z,19.57
2018-10-19T02:42:11.057Z,18.23
2018-10-19T02:45:23.076Z,19.80
2018-10-19T02:48:34.702Z,18.30
2018-10-19T02:51:46.336Z,19.87
2018-10-19T02:54:58.576Z,23.42
2018-10-19T02:58:10.315Z,19.90
2018-10-19T03:01:22.177Z,20.10
2018-10-19T03:04:34.210Z,19.90
2018-10-19T03:07:45.996Z,18.32
2018-10-19T03:10:57.969Z,18.73
2018-10-19T03:14:09.505Z,21.90
2018-10-19T03:17:21.117Z,22.80
2018-10-19T03:20:32.933Z,28.20
2018-10-19T03:23:44.503Z,24.23
2018-10-19T03:26:56.526Z,28.77
2018-10-19T03:30:09.173Z,34.50
2018-10-19T03:33:20.913Z,34.03
2018-10-19T03:36:33.197Z,35.75
2018-10-19T03:39:45.129Z,29.10
2018-10-19T03:42:56.476Z,33.67
2018-10-19T03:46:08.434Z,42.88
2018-10-19T03:49:20.237Z,29.23
2018-10-19T03:52:32.173Z,33.13
2018-10-19T03:55:43.560Z,41.00
2018-10-19T03:58:55.758Z,37.67
2018-10-19T04:02:07.339Z,32.35
2018-10-19T04:05:21.428Z,29.55
2018-10-19T04:08:33.029Z,45.83
2018-10-19T04:11:45.192Z,33.80
2018-10-19T04:14:56.474Z,38.67
2018-10-19T04:18:08.354Z,38.58
2018-10-19T04:21:20.265Z,37.85
2018-10-19T04:24:31.983Z,33.25
2018-10-19T04:27:43.750Z,39.65
2018-10-19T04:30:55.286Z,35.70
2018-10-19T04:34:06.941Z,40.83
2018-10-19T04:37:18.769Z,42.00
2018-10-19T04:40:30.828Z,42.60
2018-10-19T04:43:42.735Z,31.17
2018-10-19T04:46:54.873Z,34.13
2018-10-19T04:50:06.912Z,37.73
2018-10-19T04:53:18.083Z,40.08
2018-10-19T04:56:30.097Z,46.55
2018-10-19T04:59:42.513Z,47.60
2018-10-19T05:02:53.652Z,51.00
2018-10-19T05:06:06.305Z,34.85
2018-10-19T05:09:17.815Z,31.52
2018-10-19T05:12:29.860Z,34.63
2018-10-19T05:15:41.493Z,35.35
2018-10-19T05:18:53.235Z,31.62
2018-10-19T05:22:06.034Z,41.02
2018-10-19T05:25:17.328Z,52.20
2018-10-19T05:28:29.054Z,43.38
2018-10-19T05:31:41.103Z,56.02
2018-10-19T05:34:53.667Z,57.20
2018-10-19T05:38:06.102Z,34.80
2018-10-19T05:41:17.644Z,40.65
2018-10-19T05:44:29.240Z,57.20
2018-10-19T05:47:41.480Z,39.65
2018-10-19T05:50:53.320Z,59.58
2018-10-19T05:54:05.896Z,79.58
2018-10-19T05:57:17.081Z,50.23
2018-10-19T06:00:29.200Z,53.80
2018-10-19T06:03:40.888Z,44.85
2018-10-19T06:06:52.481Z,69.10
2018-10-19T06:10:04.058Z,36.58
2018-10-19T06:13:15.680Z,52.73
2018-10-19T06:16:27.548Z,45.45
2018-10-19T06:19:39.264Z,37.50
2018-10-19T06:22:51.036Z,36.30
2018-10-19T06:26:02.640Z,53.20
2018-10-19T06:29:15.375Z,42.85
2018-10-19T06:32:26.806Z,62.45
2018-10-19T06:35:38.441Z,44.48
2018-10-19T06:38:50.717Z,43.20
2018-10-19T06:42:02.440Z,38.70
2018-10-19T06:45:13.885Z,46.92
2018-10-19T06:48:25.783Z,41.00
2018-10-19T06:51:37.610Z,54.08
2018-10-19T06:54:49.538Z,50.73
2018-10-19T06:58:01.307Z,49.95
2018-10-19T07:01:13.410Z,40.30
2018-10-19T07:04:25.209Z,50.85
2018-10-19T07:07:37.391Z,66.53
2018-10-19T07:10:49.404Z,48.68
2018-10-19T07:14:00.697Z,58.05
2018-10-19T07:17:12.847Z,59.93
2018-10-19T07:20:24.412Z,50.28
2018-10-19T07:23:36.080Z,60.12
2018-10-19T07:26:48.138Z,44.42
2018-10-19T07:30:00.339Z,63.68
2018-10-19T07:33:11.853Z,49.30
2018-10-19T07:36:23.956Z,47.65
2018-10-19T07:39:35.677Z,60.08
2018-10-19T07:42:47.299Z,42.43
2018-10-19T07:45:59.346Z,51.42
2018-10-19T07:49:11.599Z,38.15
2018-10-19T07:52:23.720Z,37.28
2018-10-19T07:55:35.671Z,44.18
2018-10-19T07:58:47.580Z,38.23
2018-10-19T08:01:59.453Z,37.45
2018-10-19T08:05:12.416Z,41.08
2018-10-19T08:08:24.663Z,36.42
2018-10-19T08:11:36.651Z,43.33
2018-10-19T08:14:48.445Z,35.65
2018-10-19T08:18:00.284Z,30.02
2018-10-19T08:21:12.292Z,48.10
2018-10-19T08:24:23.869Z,41.15
2018-10-19T08:27:35.661Z,39.63
2018-10-19T08:30:47.146Z,40.52
2018-10-19T08:33:58.783Z,45.65
2018-10-19T08:37:10.889Z,39.15
2018-10-19T08:40:22.516Z,31.70
2018-10-19T08:43:33.744Z,33.55
2018-10-19T08:46:46.097Z,41.05
2018-10-19T08:49:57.689Z,33.18
2018-10-19T08:53:09.792Z,43.48
2018-10-19T08:56:21.627Z,36.63
2018-10-19T08:59:33.600Z,30.88
2018-10-19T09:02:45.535Z,48.25
2018-10-19T09:05:57.405Z,40.28
2018-10-19T09:09:11.973Z,29.95
2018-10-19T09:12:23.522Z,34.67
2018-10-19T09:15:35.628Z,36.63
2018-10-19T09:18:47.704Z,42.50
2018-10-19T09:21:59.114Z,37.08
2018-10-19T09:25:12.483Z,30.48
2018-10-19T09:28:24.244Z,30.75
2018-10-19T09:31:36.173Z,34.67
2018-10-19T09:34:48.425Z,27.73
2018-10-19T09:38:00.108Z,24.77
2018-10-19T09:41:12.165Z,35.65
2018-10-19T09:44:23.921Z,39.88
2018-10-19T09:47:35.793Z,30.43
2018-10-19T09:50:47.685Z,30.97
2018-10-19T09:53:59.550Z,29.60
2018-10-19T09:57:11.406Z,37.08
2018-10-19T10:00:28.081Z,29.25
2018-10-19T10:03:39.744Z,24.95
2018-10-19T10:06:51.187Z,28.12
2018-10-19T10:13:46.011Z,35.50
2018-10-19T10:16:58.108Z,33.00
2018-10-19T10:20:18.178Z,34.48
2018-10-19T10:23:29.962Z,30.27
2018-10-19T10:26:41.191Z,36.53
2018-10-19T10:29:53.142Z,31.12
2018-10-19T10:33:04.888Z,32.38
2018-10-19T10:36:17.289Z,35.08
2018-10-19T10:39:28.555Z,42.90
2018-10-19T10:42:41.098Z,41.65
2018-10-19T10:45:52.701Z,33.05
2018-10-19T10:49:04.288Z,45.23
2018-10-19T10:52:16.084Z,40.08
2018-10-19T10:55:27.842Z,28.10
2018-10-19T10:58:39.491Z,30.97
2018-10-19T11:01:51.593Z,35.88
2018-10-19T11:05:03.422Z,26.48
2018-10-19T11:08:14.852Z,28.87
2018-10-19T11:11:26.822Z,36.45
2018-10-19T11:14:38.897Z,30.32
2018-10-19T11:17:50.772Z,36.80
2018-10-19T11:21:02.865Z,31.17
2018-10-19T11:24:14.594Z,28.35
2018-10-19T11:27:26.312Z,31.12
2018-10-19T11:30:38.282Z,30.72
2018-10-19T11:33:50.078Z,33.38
2018-10-19T11:37:01.916Z,23.05
2018-10-19T11:40:38.663Z,36.30
2018-10-19T11:43:49.944Z,27.80
2018-10-19T11:47:01.962Z,31.48
2018-10-19T11:50:13.747Z,34.58
2018-10-19T11:53:25.668Z,27.60
2018-10-19T11:56:38.671Z,25.12
2018-10-19T11:59:50.268Z,30.80
2018-10-19T12:03:02.183Z,28.90
2018-10-19T12:06:14.334Z,32.05
2018-10-19T12:09:25.680Z,29.90
2018-10-19T12:12:38.510Z,35.08
2018-10-19T12:15:50.787Z,29.95
2018-10-19T12:19:02.005Z,23.15
2018-10-19T12:22:13.910Z,37.33
2018-10-19T12:25:25.803Z,33.85
2018-10-19T12:28:37.730Z,36.85
2018-10-19T12:31:49.771Z,42.08
2018-10-19T12:35:02.057Z,43.58
2018-10-19T12:38:13.426Z,30.43
2018-10-19T12:41:25.060Z,31.10
2018-10-19T12:44:36.855Z,30.72
2018-10-19T12:47:48.716Z,28.83
2018-10-19T12:51:00.286Z,30.97
2018-10-19T12:54:12.601Z,33.92
2018-10-19T12:57:24.261Z,31.95
2018-10-19T13:00:37.896Z,36.90
2018-10-19T13:03:49.880Z,34.10
2018-10-19T13:07:03.666Z,42.90
2018-10-19T13:10:15.363Z,33.33
2018-10-19T13:13:27.101Z,31.25
2018-10-19T13:16:38.892Z,32.08
2018-10-19T13:19:51.059Z,33.05
2018-10-19T13:23:02.689Z,29.98
2018-10-19T13:26:14.294Z,32.10
2018-10-19T13:29:26.255Z,30.23
2018-10-19T13:32:37.983Z,23.22
2018-10-19T13:35:49.885Z,40.43
2018-10-19T13:39:01.782Z,32.55
2018-10-19T13:42:13.535Z,35.60
2018-10-19T13:45:25.641Z,36.38
2018-10-19T13:48:37.743Z,42.43
2018-10-19T13:51:50.803Z,29.42
2018-10-19T13:55:01.826Z,38.23
2018-10-19T13:58:13.474Z,30.12
2018-10-19T14:01:25.210Z,26.85
2018-10-19T14:04:36.553Z,27.58
2018-10-19T14:07:48.624Z,29.10
2018-10-19T14:11:00.365Z,26.52
2018-10-19T14:14:11.935Z,26.10
2018-10-19T14:17:24.039Z,31.73
2018-10-19T14:20:35.747Z,36.17
2018-10-19T14:23:47.528Z,33.50
2018-10-19T14:26:59.137Z,32.38
2018-10-19T14:30:13.372Z,31.17
2018-10-19T14:33:25.009Z,33.80
2018-10-19T14:36:37.767Z,37.95
2018-10-19T14:39:50.461Z,24.15
2018-10-19T14:43:02.480Z,32.67
2018-10-19T14:46:14.564Z,29.00
2018-10-19T14:49:26.563Z,32.15
2018-10-19T14:52:38.430Z,30.80
2018-10-19T14:55:50.093Z,37.28
2018-10-19T14:59:01.828Z,31.45
2018-10-19T15:02:15.197Z,38.90
2018-10-19T15:05:27.135Z,30.85
2018-10-19T15:08:39.369Z,35.33
2018-10-19T15:11:51.163Z,36.55
2018-10-19T15:15:02.538Z,34.90
2018-10-19T15:18:14.308Z,42.43
2018-10-19T15:21:26.101Z,33.83
2018-10-19T15:24:37.243Z,47.85
2018-10-19T15:27:49.296Z,29.87
2018-10-19T15:31:01.300Z,32.15
2018-10-19T15:34:13.180Z,30.75
2018-10-19T15:37:25.034Z,28.45
2018-10-19T15:40:37.476Z,35.35
2018-10-19T15:43:48.783Z,32.50
2018-10-19T15:47:03.368Z,42.03
2018-10-19T15:50:15.035Z,39.98
2018-10-19T15:53:28.102Z,30.75
2018-10-19T15:56:39.641Z,34.70
2018-10-19T15:59:51.666Z,40.30
2018-10-19T16:03:03.140Z,37.20
2018-10-19T16:06:14.879Z,43.55
2018-10-19T16:09:27.019Z,42.80
2018-10-19T16:12:38.655Z,49.05
2018-10-19T16:15:50.247Z,35.60
2018-10-19T16:19:03.655Z,36.83
2018-10-19T16:22:15.414Z,33.28
2018-10-19T16:25:27.000Z,36.58
2018-10-19T16:28:39.071Z,40.08
2018-10-19T16:31:51.500Z,38.20
2018-10-19T16:35:04.196Z,35.83
2018-10-19T16:38:16.674Z,36.77
2018-10-19T16:41:28.457Z,38.45
2018-10-19T16:44:40.505Z,37.05
2018-10-19T16:47:51.885Z,33.88
2018-10-19T16:51:04.155Z,34.63
2018-10-19T16:54:16.663Z,29.07
2018-10-19T16:57:28.488Z,38.83
2018-10-19T17:00:40.909Z,31.75
2018-10-19T17:03:52.643Z,41.45
2018-10-19T17:07:05.329Z,45.43
2018-10-19T17:10:18.920Z,30.72
2018-10-19T17:13:39.795Z,43.78
2018-10-19T17:16:52.453Z,47.58
2018-10-19T17:20:07.355Z,38.28
2018-10-19T17:23:19.876Z,39.50
2018-10-19T17:26:32.231Z,35.08
2018-10-19T17:29:44.043Z,35.60
2018-10-19T17:32:56.217Z,35.75
2018-10-19T17:36:07.735Z,35.40
2018-10-19T17:39:19.908Z,31.20
2018-10-19T17:42:31.763Z,31.35
2018-10-19T17:45:44.001Z,39.63
2018-10-19T17:48:56.824Z,33.45
2018-10-19T17:52:08.619Z,42.00
2018-10-19T17:55:21.438Z,40.85
2018-10-19T17:58:32.983Z,33.23
2018-10-19T18:01:44.627Z,58.10
2018-10-19T18:04:56.468Z,41.37
2018-10-19T18:08:08.132Z,35.85
2018-10-19T18:11:20.916Z,42.70
2018-10-19T18:14:32.691Z,39.08
2018-10-19T18:17:44.195Z,41.63
2018-10-19T18:20:56.419Z,41.65
2018-10-19T18:24:07.913Z,46.92
2018-10-19T18:27:20.193Z,36.30
2018-10-19T18:30:31.629Z,36.90
2018-10-19T18:33:43.507Z,38.83
2018-10-19T18:37:08.338Z,38.28
2018-10-19T18:40:19.829Z,42.23
2018-10-19T18:43:32.000Z,34.27
2018-10-19T18:46:43.525Z,49.75
2018-10-19T18:49:55.593Z,47.85
2018-10-19T18:53:07.387Z,56.15
2018-10-19T18:56:19.175Z,36.05
2018-10-19T18:59:31.166Z,41.25
2018-10-19T19:02:44.843Z,34.55
2018-10-19T19:05:57.753Z,31.02
2018-10-19T19:09:12.546Z,38.63
2018-10-19T19:12:24.733Z,38.15
2018-10-19T19:15:36.268Z,41.83
2018-10-19T19:18:49.381Z,41.60
2018-10-19T19:22:00.745Z,31.93
2018-10-19T19:25:17.770Z,43.52
2018-10-19T19:28:29.579Z,35.60
2018-10-19T19:31:41.484Z,38.25
2018-10-19T19:34:53.481Z,47.35
2018-10-19T19:38:05.603Z,40.78
2018-10-19T19:41:22.709Z,37.63
2018-10-19T19:44:34.445Z,38.15
2018-10-19T19:47:51.325Z,29.10
2018-10-19T19:51:03.084Z,34.45
2018-10-19T19:54:14.573Z,32.20
2018-10-19T19:57:26.648Z,34.48
2018-10-19T20:00:37.968Z,35.85
2018-10-19T20:03:49.438Z,51.73
2018-10-19T20:07:01.125Z,40.28
2018-10-19T20:10:12.256Z,42.62
2018-10-19T20:13:24.154Z,42.23
2018-10-19T20:16:49.321Z,41.15
2018-10-19T20:20:00.890Z,38.00
2018-10-19T20:23:13.352Z,32.93
2018-10-19T20:30:16.174Z,39.60
2018-10-19T20:33:33.124Z,48.58
2018-10-19T20:36:45.871Z,36.42
2018-10-19T20:39:57.287Z,38.35
2018-10-19T20:43:10.643Z,39.13
2018-10-19T20:46:22.815Z,32.83
2018-10-19T20:49:40.033Z,39.27
2018-10-19T20:52:52.211Z,42.45
2018-10-19T20:56:03.859Z,34.33
2018-10-19T20:59:15.692Z,31.60
2018-10-19T21:02:27.675Z,34.40
2018-10-19T21:05:39.319Z,61.58
2018-10-19T21:08:51.288Z,36.08
2018-10-19T21:12:03.296Z,34.35
2018-10-19T21:18:58.061Z,41.40
2018-10-19T21:22:09.884Z,35.33
2018-10-19T21:25:21.766Z,33.45
2018-10-19T21:28:33.461Z,36.63
2018-10-19T21:31:45.260Z,30.77
2018-10-19T21:34:56.619Z,28.27
2018-10-19T21:38:08.440Z,30.32
2018-10-19T21:41:20.213Z,39.90
2018-10-19T21:44:31.520Z,35.35
2018-10-19T21:47:43.194Z,32.58
2018-10-19T21:50:54.893Z,34.55
2018-10-19T21:54:06.905Z,35.85
2018-10-19T21:57:18.934Z,30.95
2018-10-19T22:00:30.882Z,32.58
2018-10-19T22:03:42.903Z,32.95
2018-10-19T22:06:54.583Z,31.25
2018-10-19T22:10:06.738Z,36.90
2018-10-19T22:13:18.419Z,41.33
2018-10-19T22:16:30.867Z,32.75
2018-10-19T22:19:42.106Z,33.13
2018-10-19T22:22:53.953Z,29.23
2018-10-19T22:26:06.556Z,54.58
2018-10-19T22:29:18.006Z,28.77
2018-10-19T22:32:29.840Z,39.18
2018-10-19T22:35:41.661Z,34.05
2018-10-19T22:38:53.709Z,31.50
2018-10-19T22:42:05.454Z,32.40
2018-10-19T22:45:17.148Z,28.15
2018-10-19T22:48:28.211Z,33.53
2018-10-19T22:51:40.314Z,31.42
2018-10-19T22:54:52.883Z,28.47
2018-10-19T22:58:04.330Z,30.80
2018-10-19T23:01:16.032Z,35.85
2018-10-19T23:04:27.829Z,35.08
2018-10-19T23:07:39.775Z,38.38
2018-10-19T23:10:51.037Z,34.83
2018-10-19T23:14:02.982Z,33.35
2018-10-19T23:17:15.326Z,32.67
2018-10-19T23:20:27.054Z,32.65
2018-10-19T23:23:38.664Z,32.40
2018-10-19T23:26:50.142Z,28.83
2018-10-19T23:30:01.205Z,34.55
2018-10-19T23:33:13.176Z,27.77
2018-10-19T23:36:25.219Z,32.73
2018-10-19T23:39:37.513Z,34.73
2018-10-19T23:42:50.433Z,30.70
2018-10-19T23:46:08.260Z,27.62
2018-10-19T23:49:20.069Z,41.28
2018-10-19T23:52:31.916Z,26.45
2018-10-19T23:55:43.758Z,35.58
2018-10-19T23:58:55.772Z,32.70
